createdAt,value
2019-04-11T00:00:52.081Z,4.60
2019-04-11T00:03:21.655Z,4.50
2019-04-11T00:05:50.884Z,4.50
2019-04-11T00:08:20.248Z,4.50
2019-04-11T00:10:49.440Z,4.50
2019-04-11T00:13:23.801Z,4.50
2019-04-11T00:15:50.694Z,4.50
2019-04-11T00:18:20.761Z,4.50
2019-04-11T00:20:50.631Z,4.40
2019-04-11T00:23:19.875Z,4.40
2019-04-11T00:25:49.582Z,4.40
2019-04-11T00:28:18.782Z,4.40
2019-04-11T00:30:48.376Z,4.40
2019-04-11T00:33:18.201Z,4.40
2019-04-11T00:35:48.077Z,4.40
2019-04-11T00:38:18.020Z,4.30
2019-04-11T00:40:47.204Z,4.30
2019-04-11T00:43:29.849Z,4.30
2019-04-11T00:45:47.696Z,4.30
2019-04-11T00:48:17.588Z,4.20
2019-04-11T00:50:47.605Z,4.20
2019-04-11T00:53:18.851Z,4.20
2019-04-11T00:55:48.094Z,4.20
2019-04-11T00:58:17.352Z,4.10
2019-04-11T01:00:47.163Z,4.10
2019-04-11T01:03:16.435Z,4.10
2019-04-11T01:05:45.782Z,4.10
2019-04-11T01:08:15.692Z,4.10
2019-04-11T01:10:45.651Z,4.10
2019-04-11T01:13:15.713Z,4.00
2019-04-11T01:15:46.940Z,4.00
2019-04-11T01:18:19.769Z,4.00
2019-04-11T01:20:49.937Z,4.00
2019-04-11T01:23:20.751Z,4.00
2019-04-11T01:26:10.911Z,4.00
2019-04-11T01:34:12.680Z,3.90
2019-04-11T01:36:43.332Z,3.90
2019-04-11T01:39:30.259Z,4.00
2019-04-11T01:42:00.723Z,3.90
2019-04-11T01:44:30.444Z,3.90
2019-04-11T01:46:59.606Z,3.90
2019-04-11T01:49:30.348Z,3.90
2019-04-11T01:52:00.170Z,3.90
2019-04-11T01:54:30.006Z,3.80
2019-04-11T01:56:59.252Z,3.80
2019-04-11T01:59:29.146Z,3.80
2019-04-11T02:02:05.461Z,3.80
2019-04-11T02:04:37.201Z,3.80
2019-04-11T02:07:07.498Z,3.70
2019-04-11T02:09:37.936Z,3.80
2019-04-11T02:12:07.330Z,3.70
2019-04-11T02:14:36.582Z,3.70
2019-04-11T02:17:06.424Z,3.60
2019-04-11T02:19:36.386Z,3.60
2019-04-11T02:22:24.384Z,3.60
2019-04-11T02:24:59.127Z,3.60
2019-04-11T02:27:30.777Z,3.50
2019-04-11T02:30:01.161Z,3.50
2019-04-11T02:32:31.925Z,3.50
2019-04-11T02:35:03.948Z,3.50
2019-04-11T02:37:32.107Z,3.50
2019-04-11T02:40:03.197Z,3.50
2019-04-11T02:42:32.986Z,3.40
2019-04-11T02:45:16.422Z,3.40
2019-04-11T02:47:35.610Z,3.40
2019-04-11T02:50:05.818Z,3.40
2019-04-11T02:52:35.699Z,3.40
2019-04-11T02:55:08.483Z,3.40
2019-04-11T02:57:38.567Z,3.40
2019-04-11T03:00:10.226Z,3.40
2019-04-11T03:02:41.265Z,3.40
2019-04-11T03:05:13.608Z,3.40
2019-04-11T03:07:42.765Z,3.30
2019-04-11T03:10:14.038Z,3.30
2019-04-11T03:12:43.870Z,3.30
2019-04-11T03:15:28.781Z,3.30
2019-04-11T03:17:47.860Z,3.30
2019-04-11T03:20:28.570Z,3.30
2019-04-11T03:22:53.122Z,3.30
2019-04-11T03:25:17.849Z,3.30
2019-04-11T03:27:47.459Z,3.30
2019-04-11T03:30:23.479Z,3.20
2019-04-11T03:33:50.171Z,3.30
2019-04-11T03:38:15.678Z,3.20
2019-04-11T03:40:36.174Z,3.20
2019-04-11T03:43:05.810Z,3.20
2019-04-11T03:45:43.556Z,3.20
2019-04-11T03:48:10.457Z,3.20
2019-04-11T03:50:29.346Z,3.20
2019-04-11T03:52:56.376Z,3.10
2019-04-11T03:55:27.938Z,3.10
2019-04-11T03:57:59.204Z,3.10
2019-04-11T04:00:33.566Z,3.10
2019-04-11T04:03:00.176Z,3.10
2019-04-11T04:05:33.623Z,3.10
2019-04-11T04:08:02.266Z,3.10
2019-04-11T04:10:34.123Z,3.10
2019-04-11T04:13:05.425Z,3.00
2019-04-11T04:15:51.972Z,3.00
2019-04-11T04:18:27.739Z,2.90
2019-04-11T04:21:04.659Z,2.90
2019-04-11T04:23:38.052Z,2.90
2019-04-11T04:26:09.994Z,2.90
2019-04-11T04:28:40.700Z,2.80
2019-04-11T04:31:11.291Z,2.80
2019-04-11T04:33:40.382Z,2.80
2019-04-11T04:36:10.990Z,2.80
2019-04-11T04:38:41.486Z,2.80
2019-04-11T04:41:25.500Z,2.80
2019-04-11T04:43:43.711Z,2.80
2019-04-11T04:46:29.785Z,2.80
2019-04-11T04:52:09.419Z,2.80
2019-04-11T04:57:37.646Z,2.70
2019-04-11T05:02:44.166Z,2.70
2019-04-11T05:11:18.028Z,2.70
2019-04-11T05:16:52.524Z,2.70
2019-04-11T05:19:40.467Z,2.60
2019-04-11T05:22:10.575Z,2.70
2019-04-11T05:24:41.051Z,2.70
2019-04-11T05:27:10.489Z,2.70
2019-04-11T05:29:39.819Z,2.70
2019-04-11T05:32:45.106Z,2.70
2019-04-11T05:35:15.056Z,2.80
2019-04-11T05:37:51.477Z,2.80
2019-04-11T05:40:21.198Z,2.90
2019-04-11T05:42:55.485Z,2.90
2019-04-11T05:45:26.364Z,3.00
2019-04-11T05:47:58.323Z,3.00
2019-04-11T05:50:29.681Z,3.00
2019-04-11T05:53:02.386Z,3.10
2019-04-11T05:55:32.436Z,3.20
2019-04-11T05:58:05.841Z,3.20
2019-04-11T06:00:53.303Z,3.20
2019-04-11T06:03:26.110Z,3.30
2019-04-11T06:06:01.836Z,3.30
2019-04-11T06:08:32.348Z,3.30
2019-04-11T06:11:16.478Z,3.40
2019-04-11T06:13:48.878Z,3.40
2019-04-11T06:16:18.817Z,3.40
2019-04-11T06:19:01.791Z,3.50
2019-04-11T06:24:40.720Z,3.60
2019-04-11T06:27:28.497Z,3.60
2019-04-11T06:30:03.400Z,3.70
2019-04-11T06:40:20.817Z,3.90
2019-04-11T06:42:56.012Z,4.00
2019-04-11T06:45:41.778Z,4.10
2019-04-11T06:48:31.781Z,4.10
2019-04-11T06:51:18.449Z,4.20
2019-04-11T06:53:52.737Z,4.30
2019-04-11T06:56:30.924Z,4.40
2019-04-11T06:59:01.787Z,4.40
2019-04-11T07:01:31.108Z,4.50
2019-04-11T07:04:07.651Z,4.60
2019-04-11T07:06:39.757Z,4.70
2019-04-11T07:09:11.012Z,4.80
2019-04-11T07:11:44.891Z,4.90
2019-04-11T07:14:31.287Z,4.90
2019-04-11T07:17:18.869Z,5.00
2019-04-11T07:20:06.626Z,5.10
2019-04-11T07:22:53.500Z,5.20
2019-04-11T07:25:51.668Z,5.30
2019-04-11T07:37:19.224Z,5.60
2019-04-11T07:51:50.776Z,6.40
2019-04-11T07:54:20.370Z,6.60
2019-04-11T07:59:33.919Z,6.80
2019-04-11T08:02:05.795Z,7.00
2019-04-11T08:04:42.910Z,7.10
2019-04-11T08:07:15.714Z,7.20
2019-04-11T08:10:02.432Z,7.30
2019-04-11T08:12:33.855Z,7.50
2019-04-11T08:15:23.765Z,7.50
2019-04-11T08:17:57.851Z,7.50
2019-04-11T08:20:48.128Z,7.60
2019-04-11T08:32:09.700Z,8.10
2019-04-11T08:51:43.240Z,8.80
2019-04-11T09:00:04.672Z,9.20
2019-04-11T09:08:44.818Z,9.50
2019-04-11T09:31:10.635Z,10.50
2019-04-11T10:13:24.977Z,11.40
2019-04-11T10:15:57.879Z,11.50
2019-04-11T10:18:41.083Z,11.60
2019-04-11T11:10:19.577Z,12.20
2019-04-11T11:12:51.765Z,12.20
2019-04-11T11:15:25.799Z,12.20
2019-04-11T11:18:53.834Z,12.30
2019-04-11T11:20:55.193Z,12.30
2019-04-11T11:23:40.734Z,12.50
2019-04-11T11:26:12.596Z,12.60
2019-04-11T11:28:52.936Z,12.70
2019-04-11T11:31:32.946Z,12.90
2019-04-11T11:34:19.906Z,13.10
2019-04-11T11:36:54.510Z,13.20
2019-04-11T11:39:43.687Z,13.30
2019-04-11T11:42:14.817Z,13.40
2019-04-11T11:44:48.829Z,13.50
2019-04-11T11:47:39.786Z,13.50
2019-04-11T11:50:15.644Z,13.40
2019-04-11T11:53:06.295Z,13.10
2019-04-11T11:55:45.301Z,13.00
2019-04-11T11:58:28.307Z,13.00
2019-04-11T12:01:06.684Z,13.00
2019-04-11T12:03:40.439Z,13.00
2019-04-11T12:06:16.963Z,13.20
2019-04-11T12:09:00.419Z,13.50
2019-04-11T12:11:34.906Z,13.90
2019-04-11T12:14:11.773Z,14.10
2019-04-11T12:19:21.423Z,14.40
2019-04-11T12:22:04.390Z,14.80
2019-04-11T12:24:36.420Z,15.20
2019-04-11T12:27:13.769Z,15.60
2019-04-11T12:30:31.336Z,15.90
2019-04-11T12:42:38.323Z,17.70
2019-04-11T12:47:44.716Z,17.40
2019-04-11T12:56:26.645Z,16.60
2019-04-11T13:07:33.233Z,17.00
2019-04-11T13:16:11.950Z,17.40
2019-04-11T13:18:54.005Z,17.80
2019-04-11T13:21:27.596Z,17.80
2019-04-11T13:24:10.078Z,17.80
2019-04-11T13:26:56.987Z,17.70
2019-04-11T13:29:46.189Z,18.00
2019-04-11T13:32:35.036Z,18.00
2019-04-11T13:35:07.793Z,17.90
2019-04-11T13:37:54.534Z,18.00
2019-04-11T13:40:29.181Z,18.00
2019-04-11T13:43:14.655Z,17.80
2019-04-11T13:46:01.310Z,17.80
2019-04-11T13:48:50.784Z,18.00
2019-04-11T13:51:33.146Z,18.30
2019-04-11T13:54:19.941Z,18.30
2019-04-11T13:57:06.688Z,18.10
2019-04-11T13:59:37.581Z,18.30
2019-04-11T14:02:17.613Z,18.80
2019-04-11T14:04:48.500Z,19.30
2019-04-11T14:07:34.492Z,19.70
2019-04-11T14:10:05.953Z,19.90
2019-04-11T14:12:35.465Z,20.10
2019-04-11T14:15:14.268Z,19.70
2019-04-11T14:18:00.948Z,19.30
2019-04-11T14:20:31.804Z,19.30
2019-04-11T14:23:05.687Z,19.00
2019-04-11T14:25:38.243Z,19.20
2019-04-11T14:28:13.285Z,19.60
2019-04-11T14:30:56.454Z,20.00
2019-04-11T14:33:29.814Z,20.40
2019-04-11T14:36:12.706Z,20.30
2019-04-11T14:38:47.733Z,19.90
2019-04-11T14:41:32.369Z,19.80
2019-04-11T14:44:05.472Z,19.80
2019-04-11T14:46:55.158Z,20.00
2019-04-11T14:49:29.736Z,20.30
2019-04-11T14:54:49.363Z,20.90
2019-04-11T14:57:24.156Z,21.30
2019-04-11T14:59:55.172Z,21.70
2019-04-11T15:02:34.696Z,22.00
2019-04-11T15:07:38.536Z,21.30
2019-04-11T15:10:23.772Z,20.40
2019-04-11T15:15:53.620Z,18.90
2019-04-11T15:18:26.580Z,18.30
2019-04-11T15:20:56.072Z,17.80
2019-04-11T15:23:28.205Z,17.70
2019-04-11T15:26:08.086Z,18.20
2019-04-11T15:28:49.480Z,18.80
2019-04-11T15:31:40.254Z,19.60
2019-04-11T15:34:31.247Z,20.20
2019-04-11T15:37:21.020Z,20.80
2019-04-11T15:40:06.980Z,21.20
2019-04-11T15:42:40.479Z,21.50
2019-04-11T15:45:29.392Z,21.90
2019-04-11T15:48:14.191Z,22.20
2019-04-11T15:51:06.518Z,22.40
2019-04-11T15:53:36.958Z,22.60
2019-04-11T15:56:24.407Z,22.80
2019-04-11T15:59:07.187Z,23.10
2019-04-11T16:01:54.284Z,23.20
2019-04-11T16:04:31.122Z,23.20
2019-04-11T16:07:14.192Z,23.20
2019-04-11T16:09:56.972Z,23.00
2019-04-11T16:12:33.757Z,22.30
2019-04-11T16:15:16.158Z,20.80
2019-04-11T16:18:07.637Z,19.40
2019-04-11T16:20:38.921Z,17.90
2019-04-11T16:23:18.777Z,17.10
2019-04-11T16:25:49.692Z,16.70
2019-04-11T16:28:26.274Z,16.40
2019-04-11T16:30:57.338Z,16.00
2019-04-11T16:33:46.307Z,15.70
2019-04-11T16:36:20.994Z,15.50
2019-04-11T16:39:07.718Z,15.30
2019-04-11T16:41:57.506Z,15.10
2019-04-11T16:44:46.225Z,14.70
2019-04-11T16:47:33.184Z,14.40
2019-04-11T16:50:03.999Z,14.10
2019-04-11T16:52:33.215Z,13.90
2019-04-11T16:55:02.430Z,13.80
2019-04-11T16:57:31.620Z,13.70
2019-04-11T17:00:05.767Z,13.50
2019-04-11T17:02:35.000Z,13.40
2019-04-11T17:05:07.104Z,13.30
2019-04-11T17:07:45.013Z,13.30
2019-04-11T17:10:15.804Z,13.30
2019-04-11T17:12:45.118Z,13.20
2019-04-11T17:15:19.949Z,13.20
2019-04-11T17:17:53.517Z,13.30
2019-04-11T17:20:29.312Z,13.20
2019-04-11T17:23:01.414Z,13.20
2019-04-11T17:25:30.608Z,13.10
2019-04-11T17:27:59.767Z,13.00
2019-04-11T17:30:29.124Z,12.90
2019-04-11T17:32:58.464Z,12.80
2019-04-11T17:35:31.562Z,12.80
2019-04-11T17:38:01.067Z,12.70
2019-04-11T17:40:31.148Z,12.60
2019-04-11T17:43:00.383Z,12.50
2019-04-11T17:45:42.960Z,12.30
2019-04-11T17:48:12.271Z,12.20
2019-04-11T17:50:41.463Z,12.10
2019-04-11T17:53:13.527Z,11.90
2019-04-11T17:55:47.470Z,11.80
2019-04-11T17:58:19.432Z,11.60
2019-04-11T18:00:50.496Z,11.50
2019-04-11T18:03:19.706Z,11.40
2019-04-11T18:05:51.674Z,11.30
2019-04-11T18:08:20.970Z,11.10
2019-04-11T18:10:50.282Z,11.10
2019-04-11T18:13:19.462Z,11.00
2019-04-11T18:15:48.778Z,10.90
2019-04-11T18:18:18.043Z,10.90
2019-04-11T18:20:47.253Z,10.90
2019-04-11T18:23:19.778Z,10.90
2019-04-11T18:25:53.776Z,10.80
2019-04-11T18:28:23.048Z,10.80
2019-04-11T18:30:54.044Z,10.80
2019-04-11T18:33:23.904Z,10.80
2019-04-11T18:35:53.124Z,10.70
2019-04-11T18:38:22.538Z,10.70
2019-04-11T18:40:57.685Z,10.70
2019-04-11T18:43:29.977Z,10.70
2019-04-11T18:45:59.305Z,10.70
2019-04-11T18:48:28.549Z,10.70
2019-04-11T18:50:57.893Z,10.70
2019-04-11T18:53:28.801Z,10.70
2019-04-11T18:56:01.736Z,10.60
2019-04-11T18:58:34.444Z,10.60
2019-04-11T19:01:08.801Z,10.60
2019-04-11T19:03:36.528Z,10.50
2019-04-11T19:06:05.864Z,10.50
2019-04-11T19:08:37.961Z,10.50
2019-04-11T19:11:07.305Z,10.50
2019-04-11T19:13:38.842Z,10.50
2019-04-11T19:16:08.129Z,10.50
2019-04-11T19:18:47.228Z,10.40
2019-04-11T19:21:14.107Z,10.40
2019-04-11T19:23:46.126Z,10.50
2019-04-11T19:26:28.748Z,10.40
2019-04-11T19:29:00.103Z,10.30
2019-04-11T19:31:28.957Z,10.30
2019-04-11T19:34:08.579Z,10.20
2019-04-11T19:36:42.409Z,10.20
2019-04-11T19:39:14.615Z,10.20
2019-04-11T19:41:48.659Z,10.10
2019-04-11T19:44:19.415Z,10.10
2019-04-11T19:46:51.093Z,10.00
2019-04-11T19:49:19.865Z,9.90
2019-04-11T19:51:50.842Z,9.90
2019-04-11T19:54:32.775Z,9.80
2019-04-11T19:57:04.440Z,9.80
2019-04-11T19:59:33.739Z,9.70
2019-04-11T20:02:03.033Z,9.60
2019-04-11T20:04:32.218Z,9.50
2019-04-11T20:07:07.045Z,9.30
2019-04-11T20:09:36.506Z,9.30
2019-04-11T20:12:05.738Z,9.20
2019-04-11T20:14:35.117Z,9.10
2019-04-11T20:17:04.306Z,9.00
2019-04-11T20:19:33.552Z,8.90
2019-04-11T20:22:02.769Z,8.90
2019-04-11T20:24:31.960Z,8.80
2019-04-11T20:27:01.169Z,8.70
2019-04-11T20:29:33.073Z,8.60
2019-04-11T20:32:02.269Z,8.60
2019-04-11T20:34:31.436Z,8.60
2019-04-11T20:37:00.749Z,8.50
2019-04-11T20:39:29.983Z,8.50
2019-04-11T20:41:59.296Z,8.50
2019-04-11T20:44:28.532Z,8.40
2019-04-11T20:47:00.096Z,8.40
2019-04-11T20:49:28.654Z,8.30
2019-04-11T20:51:57.830Z,8.30
2019-04-11T20:54:27.029Z,8.30
2019-04-11T20:56:56.268Z,8.30
2019-04-11T20:59:34.367Z,8.20
2019-04-11T21:01:56.998Z,8.20
2019-04-11T21:04:26.186Z,8.20
2019-04-11T21:06:55.438Z,8.20
2019-04-11T21:09:24.644Z,8.10
2019-04-11T21:11:53.943Z,8.20
2019-04-11T21:14:23.159Z,8.10
2019-04-11T21:16:52.379Z,8.10
2019-04-11T21:19:23.193Z,8.00
2019-04-11T21:21:53.352Z,8.00
2019-04-11T21:24:23.315Z,8.00
2019-04-11T21:26:52.553Z,8.00
2019-04-11T21:29:21.781Z,8.00
2019-04-11T21:31:51.281Z,7.90
2019-04-11T21:34:20.471Z,7.90
2019-04-11T21:36:49.651Z,7.90
2019-04-11T21:39:18.815Z,7.80
2019-04-11T21:41:47.994Z,7.80
2019-04-11T21:44:17.163Z,7.80
2019-04-11T21:46:49.122Z,7.70
2019-04-11T21:49:17.322Z,7.70
2019-04-11T21:51:46.492Z,7.70
2019-04-11T21:54:15.746Z,7.70
2019-04-11T21:56:49.254Z,7.70
2019-04-11T21:59:20.006Z,7.60
2019-04-11T22:01:46.834Z,7.70
2019-04-11T22:04:15.990Z,7.70
2019-04-11T22:06:45.219Z,7.60
2019-04-11T22:09:14.452Z,7.60
2019-04-11T22:11:43.635Z,7.50
2019-04-11T22:14:12.977Z,7.50
2019-04-11T22:16:45.041Z,7.40
2019-04-11T22:19:14.329Z,7.40
2019-04-11T22:21:45.290Z,7.50
2019-04-11T22:24:15.036Z,7.40
2019-04-11T22:26:44.248Z,7.50
2019-04-11T22:29:13.500Z,7.50
2019-04-11T22:31:42.722Z,7.50
2019-04-11T22:34:13.560Z,7.50
2019-04-11T22:36:42.800Z,7.50
2019-04-11T22:39:12.012Z,7.50
2019-04-11T22:41:41.248Z,7.60
2019-04-11T22:44:10.465Z,7.60
2019-04-11T22:46:39.765Z,7.60
2019-04-11T22:49:09.489Z,7.60
2019-04-11T22:51:42.558Z,7.60
2019-04-11T22:54:13.010Z,7.60
2019-04-11T22:56:41.841Z,7.70
2019-04-11T22:59:13.596Z,7.70
2019-04-11T23:01:46.791Z,7.70
2019-04-11T23:04:16.593Z,7.70
2019-04-11T23:06:44.902Z,7.70
2019-04-11T23:09:16.692Z,7.60
2019-04-11T23:11:46.391Z,7.60
2019-04-11T23:14:16.076Z,7.60
2019-04-11T23:16:45.751Z,7.60
2019-04-11T23:19:15.010Z,7.50
2019-04-11T23:21:44.202Z,7.50
2019-04-11T23:24:13.404Z,7.50
2019-04-11T23:26:42.628Z,7.50
2019-04-11T23:29:15.798Z,7.40
2019-04-11T23:31:42.738Z,7.40
2019-04-11T23:34:11.998Z,7.40
2019-04-11T23:36:41.170Z,7.40
2019-04-11T23:39:10.409Z,7.30
2019-04-11T23:41:39.569Z,7.30
2019-04-11T23:44:08.837Z,7.30
2019-04-11T23:46:38.031Z,7.20
2019-04-11T23:49:07.242Z,7.20
2019-04-11T23:51:36.449Z,7.10
2019-04-11T23:54:05.737Z,7.00
2019-04-11T23:56:34.946Z,7.00
2019-04-11T23:59:04.242Z,6.90
